Camp Murray, Washington
Current Conditions -  °F | °C
As of 3:53 PM on Wednesday 28 Jan 2015 (Local Time) from KTIW Reporting Station
Scattered Clouds Scattered Clouds  
Wind Chill: 50°   Ceiling: Unl
Heat Index: 50°   Visibility: 10mi
Dew Point: 42°   Wind: 3mph
Humidity: 74%   Direction: 30°NNE
Pressure: 30.36"   Gusts: NA
Location:  47.25°N, 122.44°W
Report Text: KTIW 282353Z 03003KT 10SM SCT015 10/06 A3036 RMK AO2 SLP283 T01000056 10111 20083 56007
Loading
Personal Weather Stations






























Interactive Weather Map New forecast layout! Learn more

10-Day Weather Forecast

Advertisements
Track Severe Weather on mobile